Terminal Aerodrome Forecast
Issued by NWS

Home | Current Version | Previous Version | Text Only | Print | Product List | Glossary On
Versions: 1 2 3 4 5 6 7 8 9 10 11 12 13 14 15 16 17 18 19 20
000
FTUS43 KJKL 301100
TAFSJS
TAF
KSJS 301139Z 3012/3112 30010G17KT 6SM -SN BKN018 OVC030
     FM301400 32010G19KT 3SM -SN OVC015
     FM301700 33010G18KT P6SM OVC022
     FM302200 33007KT P6SM SCT025=

USA.gov is the U.S. government's official web portal to all federal, state and local government web resources and services.